createdAt,value
2018-04-11T00:01:13.597Z,19.53
2018-04-11T00:03:41.679Z,19.07
2018-04-11T00:06:10.395Z,20.27
2018-04-11T00:08:39.380Z,20.20
2018-04-11T00:11:07.466Z,21.10
2018-04-11T00:13:35.571Z,20.73
2018-04-11T00:16:03.685Z,21.70
2018-04-11T00:18:32.179Z,21.50
2018-04-11T00:21:00.310Z,21.23
2018-04-11T00:23:28.431Z,20.90
2018-04-11T00:25:56.511Z,20.30
2018-04-11T00:28:24.598Z,21.93
2018-04-11T00:30:52.717Z,22.77
2018-04-11T00:33:20.845Z,25.23
2018-04-11T00:35:48.915Z,27.40
2018-04-11T00:38:17.130Z,25.77
2018-04-11T00:53:45.257Z,31.13
2018-04-11T00:56:13.356Z,29.77
2018-04-11T00:58:41.447Z,30.80
2018-04-11T01:01:09.575Z,29.73
2018-04-11T01:03:37.783Z,31.33
2018-04-11T01:06:05.867Z,29.03
2018-04-11T01:08:33.960Z,30.37
2018-04-11T01:11:02.088Z,28.93
2018-04-11T01:13:30.606Z,28.27
2018-04-11T01:15:59.555Z,30.67
2018-04-11T01:18:27.651Z,28.40
2018-04-11T01:20:55.769Z,29.57
2018-04-11T01:23:24.075Z,28.63
2018-04-11T01:25:52.231Z,28.97
2018-04-11T01:28:20.331Z,30.93
2018-04-11T01:30:48.424Z,29.87
2018-04-11T01:33:16.536Z,29.10
2018-04-11T01:35:44.627Z,28.50
2018-04-11T01:38:12.780Z,28.30
2018-04-11T01:40:40.893Z,29.03
2018-04-11T01:43:08.990Z,29.97
2018-04-11T01:45:37.087Z,31.23
2018-04-11T01:48:05.399Z,31.63
2018-04-11T01:50:33.483Z,31.50
2018-04-11T01:53:01.579Z,31.80
2018-04-11T01:55:29.676Z,31.40
2018-04-11T01:57:57.777Z,30.37
2018-04-11T02:00:26.490Z,29.47
2018-04-11T02:02:55.057Z,29.43
2018-04-11T02:05:28.181Z,30.13
2018-04-11T02:07:56.287Z,29.57
2018-04-11T02:10:24.379Z,29.83
2018-04-11T02:12:52.531Z,30.07
2018-04-11T02:15:20.623Z,29.93
2018-04-11T02:17:48.788Z,28.43
2018-04-11T02:20:17.697Z,29.53
2018-04-11T02:22:45.788Z,31.70
2018-04-11T02:25:13.916Z,28.30
2018-04-11T02:27:42.028Z,29.63
2018-04-11T02:30:10.447Z,29.37
2018-04-11T02:32:38.845Z,29.70
2018-04-11T02:35:06.953Z,27.83
2018-04-11T02:37:35.095Z,28.57
2018-04-11T02:40:04.163Z,29.83
2018-04-11T02:42:32.279Z,29.37
2018-04-11T02:45:00.368Z,29.10
2018-04-11T02:47:29.333Z,29.23
2018-04-11T02:49:57.446Z,31.27
2018-04-11T02:52:25.529Z,30.70
2018-04-11T02:54:54.085Z,27.83
2018-04-11T02:57:22.187Z,28.90
2018-04-11T02:59:51.086Z,30.17
2018-04-11T03:02:19.768Z,28.87
2018-04-11T03:04:47.918Z,28.07
2018-04-11T03:07:17.565Z,32.07
2018-04-11T03:09:45.742Z,30.37
2018-04-11T03:12:13.820Z,29.53
2018-04-11T03:14:42.704Z,30.37
2018-04-11T03:17:10.796Z,28.20
2018-04-11T03:19:39.748Z,28.50
2018-04-11T03:22:08.246Z,28.03
2018-04-11T03:24:36.347Z,30.20
2018-04-11T03:27:04.459Z,28.83
2018-04-11T03:29:32.547Z,29.20
2018-04-11T03:32:00.643Z,30.13
2018-04-11T03:34:29.907Z,29.10
2018-04-11T03:36:58.011Z,29.30
2018-04-11T03:39:26.439Z,29.27
2018-04-11T03:41:54.548Z,30.43
2018-04-11T03:44:22.650Z,31.33
2018-04-11T03:46:50.751Z,30.60
2018-04-11T03:49:18.853Z,30.90
2018-04-11T03:51:46.938Z,30.13
2018-04-11T03:54:15.027Z,30.13
2018-04-11T03:56:43.132Z,32.73
2018-04-11T03:59:11.220Z,33.50
2018-04-11T04:01:39.310Z,32.27
2018-04-11T04:04:07.413Z,30.30
2018-04-11T04:06:35.856Z,30.83
2018-04-11T04:09:03.943Z,34.10
2018-04-11T04:11:32.051Z,32.30
2018-04-11T04:14:11.847Z,33.23
2018-04-11T04:16:51.863Z,32.70
2018-04-11T04:19:31.672Z,32.97
2018-04-11T04:21:59.765Z,30.33
2018-04-11T04:24:27.857Z,32.00
2018-04-11T04:26:55.967Z,31.53
2018-04-11T04:29:24.075Z,29.93
2018-04-11T04:31:52.173Z,29.03
2018-04-11T04:34:20.300Z,31.87
2018-04-11T04:36:48.982Z,31.07
2018-04-11T04:39:17.879Z,31.17
2018-04-11T04:41:46.221Z,31.23
2018-04-11T04:44:14.596Z,32.20
2018-04-11T04:46:43.619Z,32.40
2018-04-11T04:49:11.714Z,33.33
2018-04-11T04:51:39.817Z,32.80
2018-04-11T04:54:08.650Z,35.37
2018-04-11T04:56:36.738Z,35.00
2018-04-11T04:59:04.823Z,37.30
2018-04-11T05:01:32.994Z,37.00
2018-04-11T05:04:01.330Z,35.33
2018-04-11T05:06:29.408Z,37.20
2018-04-11T05:08:57.497Z,35.17
2018-04-11T05:11:25.594Z,39.87
2018-04-11T05:13:53.690Z,37.67
2018-04-11T05:16:21.798Z,37.00
2018-04-11T05:18:50.796Z,37.50
2018-04-11T05:21:18.907Z,36.00
2018-04-11T05:23:47.027Z,36.17
2018-04-11T05:26:15.111Z,37.07
2018-04-11T05:28:44.162Z,36.47
2018-04-11T05:31:12.929Z,35.67
2018-04-11T05:33:41.020Z,37.97
2018-04-11T05:36:09.192Z,36.07
2018-04-11T05:38:37.309Z,37.77
2018-04-11T05:41:10.347Z,37.87
2018-04-11T05:43:38.464Z,40.47
2018-04-11T05:46:07.483Z,40.03
2018-04-11T05:48:35.599Z,38.77
2018-04-11T05:51:03.847Z,38.93
2018-04-11T05:53:31.927Z,38.83
2018-04-11T05:56:04.612Z,41.80
2018-04-11T05:58:33.423Z,40.43
2018-04-11T06:01:01.550Z,39.13
2018-04-11T06:03:29.645Z,40.80
2018-04-11T06:05:57.811Z,39.03
2018-04-11T06:08:25.918Z,40.30
2018-04-11T06:10:54.016Z,40.93
2018-04-11T06:13:22.224Z,41.53
2018-04-11T06:15:50.314Z,43.10
2018-04-11T06:18:18.417Z,42.93
2018-04-11T06:20:46.503Z,41.50
2018-04-11T06:23:15.352Z,41.77
2018-04-11T06:25:43.450Z,44.10
2018-04-11T06:28:12.402Z,43.57
2018-04-11T06:30:40.451Z,44.50
2018-04-11T06:33:08.814Z,43.13
2018-04-11T06:35:37.163Z,44.27
2018-04-11T06:38:05.258Z,44.33
2018-04-11T06:40:33.351Z,44.20
2018-04-11T06:43:02.448Z,43.20
2018-04-11T06:45:30.538Z,41.57
2018-04-11T06:47:58.690Z,43.37
2018-04-11T06:50:26.763Z,43.57
2018-04-11T06:52:54.887Z,43.20
2018-04-11T06:55:23.807Z,44.33
2018-04-11T06:57:52.504Z,42.40
2018-04-11T07:00:20.619Z,46.07
2018-04-11T07:02:48.715Z,41.07
2018-04-11T07:05:16.801Z,42.47
2018-04-11T07:07:44.928Z,41.67
2018-04-11T07:10:13.743Z,43.33
2018-04-11T07:12:41.836Z,39.27
2018-04-11T07:15:09.942Z,38.27
2018-04-11T07:17:38.697Z,37.57
2018-04-11T07:20:06.823Z,37.80
2018-04-11T07:22:34.923Z,39.60
2018-04-11T07:25:03.013Z,37.87
2018-04-11T07:27:31.840Z,38.63
2018-04-11T07:29:59.935Z,40.13
2018-04-11T07:32:28.819Z,39.60
2018-04-11T07:34:56.906Z,37.87
2018-04-11T07:37:25.021Z,38.37
2018-04-11T07:39:53.127Z,37.70
2018-04-11T07:42:21.242Z,38.13
2018-04-11T07:44:49.362Z,38.33
2018-04-11T07:47:17.907Z,39.33
2018-04-11T07:49:46.001Z,36.77
2018-04-11T07:52:14.123Z,35.07
2018-04-11T07:54:42.218Z,34.87
2018-04-11T07:57:10.316Z,37.77
2018-04-11T07:59:38.443Z,35.87
2018-04-11T08:02:06.555Z,36.87
2018-04-11T08:04:34.703Z,36.13
2018-04-11T08:07:03.448Z,36.70
2018-04-11T08:09:31.542Z,36.50
2018-04-11T08:11:59.641Z,37.90
2018-04-11T08:14:27.760Z,37.23
2018-04-11T08:16:56.171Z,38.20
2018-04-11T08:32:24.622Z,36.07
2018-04-11T08:34:53.436Z,37.57
2018-04-11T08:37:21.854Z,38.43
2018-04-11T08:39:49.963Z,37.60
2018-04-11T08:42:18.778Z,38.43
2018-04-11T08:44:48.074Z,36.83
2018-04-11T08:47:16.531Z,37.00
2018-04-11T08:49:44.635Z,34.07
2018-04-11T08:52:12.777Z,34.90
2018-04-11T08:54:41.208Z,34.03
2018-04-11T08:57:09.323Z,34.40
2018-04-11T08:59:37.436Z,32.50
2018-04-11T09:02:05.583Z,33.27
2018-04-11T09:04:33.756Z,31.27
2018-04-11T09:07:01.884Z,28.93
2018-04-11T09:09:29.974Z,29.47
2018-04-11T09:11:58.357Z,31.33
2018-04-11T09:14:26.477Z,27.27
2018-04-11T09:16:54.604Z,27.97
2018-04-11T09:19:22.688Z,25.40
2018-04-11T09:21:51.607Z,25.03
2018-04-11T09:24:20.046Z,25.43
2018-04-11T09:26:48.566Z,26.27
2018-04-11T09:29:16.816Z,28.03
2018-04-11T09:31:44.900Z,28.10
2018-04-11T09:34:13.262Z,28.87
2018-04-11T09:36:41.343Z,31.40
2018-04-11T09:39:09.434Z,30.33
2018-04-11T09:41:37.532Z,31.40
2018-04-11T09:44:05.646Z,31.00
2018-04-11T09:46:34.465Z,31.90
2018-04-11T09:49:02.566Z,33.17
2018-04-11T09:51:30.778Z,32.07
2018-04-11T09:53:58.861Z,32.03
2018-04-11T09:56:27.967Z,32.07
2018-04-11T09:58:56.585Z,34.73
2018-04-11T10:01:24.675Z,36.40
2018-04-11T10:03:52.807Z,40.17
2018-04-11T10:06:20.903Z,38.97
2018-04-11T10:08:49.858Z,38.37
2018-04-11T10:11:17.938Z,40.40
2018-04-11T10:13:47.870Z,40.53
2018-04-11T10:16:16.273Z,42.00
2018-04-11T10:18:45.017Z,42.33
2018-04-11T10:21:13.115Z,42.60
2018-04-11T10:23:41.214Z,40.97
2018-04-11T10:26:10.298Z,40.93
2018-04-11T10:28:38.409Z,39.17
2018-04-11T10:31:06.507Z,38.17
2018-04-11T10:33:35.248Z,40.87
2018-04-11T10:36:03.363Z,37.97
2018-04-11T10:38:31.511Z,38.80
2018-04-11T10:40:59.603Z,41.57
2018-04-11T10:43:27.720Z,38.93
2018-04-11T10:45:55.818Z,39.80
2018-04-11T10:48:23.915Z,38.97
2018-04-11T10:50:52.674Z,36.90
2018-04-11T10:53:21.541Z,38.07
2018-04-11T10:55:50.521Z,37.07
2018-04-11T10:58:18.649Z,38.00
2018-04-11T11:00:51.747Z,37.90
2018-04-11T11:03:19.848Z,38.37
2018-04-11T11:05:48.851Z,38.13
2018-04-11T11:08:17.732Z,39.00
2018-04-11T11:10:45.862Z,39.83
2018-04-11T11:13:13.953Z,38.37
2018-04-11T11:15:42.070Z,39.30
2018-04-11T11:18:10.180Z,37.73
2018-04-11T11:20:38.319Z,38.67
2018-04-11T11:23:06.405Z,39.63
2018-04-11T11:25:34.499Z,37.43
2018-04-11T11:28:02.596Z,38.10
2018-04-11T11:30:30.727Z,41.03
2018-04-11T11:32:59.592Z,38.87
2018-04-11T11:35:27.734Z,40.57
2018-04-11T11:37:55.847Z,39.33
2018-04-11T11:40:23.945Z,39.10
2018-04-11T11:42:52.040Z,39.50
2018-04-11T11:45:20.159Z,39.13
2018-04-11T11:47:48.621Z,39.03
2018-04-11T11:50:16.690Z,38.50
2018-04-11T11:52:44.808Z,39.27
2018-04-11T11:55:12.896Z,39.13
2018-04-11T11:57:40.995Z,39.10
2018-04-11T12:00:09.879Z,38.63
2018-04-11T12:02:37.975Z,39.40
2018-04-11T12:05:06.282Z,38.93
2018-04-11T12:07:34.359Z,38.47
2018-04-11T12:10:02.485Z,40.03
2018-04-11T12:12:30.584Z,44.47
2018-04-11T12:14:58.739Z,42.40
2018-04-11T12:17:26.823Z,42.47
2018-04-11T12:19:54.932Z,41.33
2018-04-11T12:22:23.058Z,40.40
2018-04-11T12:24:51.771Z,41.30
2018-04-11T12:27:20.155Z,41.60
2018-04-11T12:29:48.265Z,42.47
2018-04-11T12:32:16.356Z,41.43
2018-04-11T12:34:45.215Z,42.80
2018-04-11T12:37:13.296Z,41.17
2018-04-11T12:39:41.383Z,42.43
2018-04-11T12:42:09.543Z,43.20
2018-04-11T12:44:37.652Z,41.07
2018-04-11T12:47:05.743Z,41.97
2018-04-11T12:49:35.097Z,44.57
2018-04-11T12:52:03.195Z,43.10
2018-04-11T12:54:31.743Z,45.40
2018-04-11T12:57:00.072Z,43.03
2018-04-11T12:59:28.167Z,43.10
2018-04-11T13:01:56.271Z,44.07
2018-04-11T13:04:25.707Z,43.40
2018-04-11T13:06:53.831Z,45.23
2018-04-11T13:09:22.539Z,43.57
2018-04-11T13:21:35.644Z,44.27
2018-04-11T13:24:03.780Z,42.53
2018-04-11T13:26:31.928Z,45.07
2018-04-11T13:29:00.023Z,43.43
2018-04-11T13:31:28.477Z,41.00
2018-04-11T13:33:57.385Z,42.90
2018-04-11T13:36:25.731Z,42.90
2018-04-11T13:38:54.659Z,43.37
2018-04-11T13:41:22.752Z,45.23
2018-04-11T13:43:51.762Z,43.13
2018-04-11T13:46:20.623Z,41.50
2018-04-11T13:48:53.650Z,44.07
2018-04-11T13:51:21.759Z,40.90
2018-04-11T13:53:50.195Z,45.03
2018-04-11T13:56:18.659Z,42.03
2018-04-11T13:58:46.771Z,44.27
2018-04-11T14:01:14.895Z,42.23
2018-04-11T14:03:42.984Z,42.87
2018-04-11T14:06:11.110Z,41.17
2018-04-11T14:08:39.728Z,42.77
2018-04-11T14:11:07.811Z,44.33
2018-04-11T14:13:37.054Z,42.90
2018-04-11T14:16:05.167Z,43.37
2018-04-11T14:18:33.299Z,42.00
2018-04-11T14:21:01.368Z,40.83
2018-04-11T14:23:29.540Z,40.00
2018-04-11T14:25:57.603Z,40.80
2018-04-11T14:28:26.643Z,41.03
2018-04-11T14:30:54.791Z,42.03
2018-04-11T14:33:22.887Z,42.90
2018-04-11T14:45:36.009Z,41.00
2018-04-11T14:48:04.617Z,41.97
2018-04-11T14:50:32.729Z,41.87
2018-04-11T14:53:00.839Z,40.00
2018-04-11T14:55:29.669Z,39.97
2018-04-11T14:57:57.764Z,40.57
2018-04-11T15:00:25.891Z,38.50
2018-04-11T15:02:58.911Z,39.47
2018-04-11T15:05:27.100Z,39.10
2018-04-11T15:07:55.203Z,39.60
2018-04-11T15:10:23.303Z,39.87
2018-04-11T15:12:52.139Z,41.00
2018-04-11T15:15:20.236Z,38.20
2018-04-11T15:17:49.123Z,39.47
2018-04-11T15:20:17.238Z,36.17
2018-04-11T15:22:45.335Z,35.17
2018-04-11T15:25:13.455Z,35.93
2018-04-11T15:27:41.594Z,38.27
2018-04-11T15:30:09.655Z,34.87
2018-04-11T15:32:37.775Z,33.70
2018-04-11T15:35:05.863Z,32.27
2018-04-11T15:37:33.943Z,35.63
2018-04-11T15:40:02.060Z,33.57
2018-04-11T15:55:30.202Z,35.53
2018-04-11T15:57:58.292Z,35.27
2018-04-11T16:00:26.388Z,34.93
2018-04-11T16:02:54.865Z,35.80
2018-04-11T16:05:22.949Z,35.63
2018-04-11T16:07:51.935Z,35.30
2018-04-11T16:10:20.032Z,36.23
2018-04-11T16:12:48.176Z,35.70
2018-04-11T16:15:16.293Z,35.47
2018-04-11T16:17:44.390Z,36.27
2018-04-11T16:20:12.492Z,35.63
2018-04-11T16:22:40.667Z,35.90
2018-04-11T16:25:08.770Z,36.37
2018-04-11T16:27:36.851Z,34.67
2018-04-11T16:30:05.236Z,36.43
2018-04-11T16:32:33.363Z,35.97
2018-04-11T16:35:02.425Z,36.37
2018-04-11T16:37:30.775Z,36.17
2018-04-11T16:39:58.900Z,33.50
2018-04-11T16:42:28.079Z,35.93
2018-04-11T16:44:56.173Z,36.93
2018-04-11T16:47:24.295Z,34.20
2018-04-11T16:49:52.381Z,35.47
2018-04-11T16:52:20.497Z,34.63
2018-04-11T16:54:48.576Z,35.43
2018-04-11T16:57:17.164Z,36.43
2018-04-11T16:59:45.292Z,34.90
2018-04-11T17:02:13.434Z,35.17
2018-04-11T17:04:41.589Z,34.97
2018-04-11T17:07:09.704Z,36.47
2018-04-11T17:09:37.808Z,36.60
2018-04-11T17:12:05.903Z,36.23
2018-04-11T17:14:34.023Z,37.07
2018-04-11T17:17:02.155Z,36.30
2018-04-11T17:19:30.218Z,36.50
2018-04-11T17:22:10.017Z,36.43
2018-04-11T17:24:49.937Z,35.43
2018-04-11T17:27:29.821Z,34.60
2018-04-11T17:30:09.759Z,37.33
2018-04-11T17:32:38.651Z,36.67
2018-04-11T17:35:07.771Z,37.73
2018-04-11T17:37:35.940Z,37.90
2018-04-11T17:40:04.744Z,36.73
2018-04-11T17:42:32.844Z,35.37
2018-04-11T17:45:00.951Z,36.23
2018-04-11T17:47:29.078Z,37.57
2018-04-11T17:49:57.167Z,37.67
2018-04-11T17:52:25.266Z,35.97
2018-04-11T17:54:53.367Z,37.77
2018-04-11T18:07:06.463Z,37.50
2018-04-11T18:09:34.564Z,37.27
2018-04-11T18:12:02.671Z,36.17
2018-04-11T18:14:30.770Z,36.47
2018-04-11T18:16:59.504Z,36.60
2018-04-11T18:19:28.536Z,36.67
2018-04-11T18:21:56.664Z,35.93
2018-04-11T18:24:24.760Z,34.57
2018-04-11T18:26:53.616Z,35.93
2018-04-11T18:29:21.729Z,34.87
2018-04-11T18:31:49.821Z,36.93
2018-04-11T18:34:19.192Z,35.37
2018-04-11T18:36:47.283Z,38.47
2018-04-11T18:39:16.048Z,36.67
2018-04-11T18:41:44.159Z,39.13
2018-04-11T18:44:12.540Z,37.90
2018-04-11T18:46:41.559Z,36.97
2018-04-11T18:49:09.671Z,36.73
2018-04-11T18:51:37.759Z,37.27
2018-04-11T18:54:05.879Z,38.57
2018-04-11T18:56:33.979Z,40.70
2018-04-11T18:59:02.067Z,40.10
2018-04-11T19:01:30.664Z,41.27
2018-04-11T19:04:02.447Z,40.83
2018-04-11T19:06:31.476Z,41.73
2018-04-11T19:21:59.636Z,44.43
2018-04-11T19:24:27.846Z,42.87
2018-04-11T19:26:55.936Z,44.87
2018-04-11T19:29:25.314Z,43.83
2018-04-11T19:31:54.737Z,44.90
2018-04-11T19:34:23.845Z,45.00
2018-04-11T19:36:56.879Z,46.53
2018-04-11T19:39:25.301Z,45.23
2018-04-11T19:41:53.443Z,44.87
2018-04-11T19:44:21.601Z,43.70
2018-04-11T19:46:50.003Z,44.20
2018-04-11T19:49:18.201Z,44.67
2018-04-11T19:51:46.321Z,44.07
2018-04-11T19:54:15.199Z,45.73
2018-04-11T19:56:43.660Z,45.17
2018-04-11T19:59:12.632Z,44.13
2018-04-11T20:01:40.738Z,44.73
2018-04-11T20:04:08.848Z,45.30
2018-04-11T20:06:36.958Z,45.50
2018-04-11T20:22:05.075Z,46.50
2018-04-11T20:24:33.436Z,47.83
2018-04-11T20:27:01.533Z,46.43
2018-04-11T20:29:30.448Z,48.23
2018-04-11T20:31:58.705Z,46.67
2018-04-11T20:34:27.801Z,46.30
2018-04-11T20:36:55.910Z,46.70
2018-04-11T20:39:24.331Z,47.33
2018-04-11T20:41:52.429Z,48.80
2018-04-11T20:44:21.429Z,49.00
2018-04-11T20:46:49.603Z,45.93
2018-04-11T20:49:18.735Z,46.20
2018-04-11T20:51:47.334Z,48.33
2018-04-11T20:54:15.438Z,48.57
2018-04-11T20:56:43.579Z,48.13
2018-04-11T20:59:11.658Z,47.50
2018-04-11T21:01:40.098Z,46.87
2018-04-11T21:04:08.292Z,47.30
2018-04-11T21:06:36.752Z,48.93
2018-04-11T21:09:06.526Z,46.90
2018-04-11T21:11:35.292Z,52.03
2018-04-11T21:14:04.092Z,51.00
2018-04-11T21:16:32.622Z,50.93
2018-04-11T21:19:00.726Z,50.43
2018-04-11T21:21:28.827Z,50.30
2018-04-11T21:23:56.921Z,53.70
2018-04-11T21:26:25.056Z,50.40
2018-04-11T21:28:53.165Z,51.40
2018-04-11T21:31:21.818Z,56.50
2018-04-11T21:33:49.942Z,55.40
2018-04-11T21:36:18.972Z,53.03
2018-04-11T21:38:47.712Z,54.53
2018-04-11T21:41:16.203Z,53.47
2018-04-11T21:43:44.268Z,54.47
2018-04-11T21:46:12.698Z,54.47
2018-04-11T21:48:40.773Z,55.03
2018-04-11T21:51:08.895Z,53.00
2018-04-11T21:53:37.829Z,54.50
2018-04-11T21:56:06.219Z,54.93
2018-04-11T21:58:34.328Z,56.03
2018-04-11T22:01:02.435Z,57.33
2018-04-11T22:03:31.442Z,55.53
2018-04-11T22:05:59.525Z,56.07
2018-04-11T22:08:28.380Z,57.60
2018-04-11T22:10:57.395Z,58.80
2018-04-11T22:13:25.499Z,57.80
2018-04-11T22:15:58.574Z,57.57
2018-04-11T22:18:27.163Z,58.73
2018-04-11T22:20:55.259Z,56.93
2018-04-11T22:23:23.369Z,57.50
2018-04-11T22:28:28.593Z,59.53
2018-04-11T22:30:56.719Z,57.00
2018-04-11T22:33:24.806Z,59.03
2018-04-11T22:35:52.934Z,57.93
2018-04-11T22:51:22.049Z,57.30
2018-04-11T22:53:50.167Z,54.73
2018-04-11T22:56:18.277Z,55.53
2018-04-11T22:58:46.391Z,54.30
2018-04-11T23:01:14.486Z,55.37
2018-04-11T23:03:42.655Z,57.07
2018-04-11T23:06:11.303Z,56.77
2018-04-11T23:08:40.295Z,55.37
2018-04-11T23:11:09.298Z,57.13
2018-04-11T23:13:37.527Z,51.50
2018-04-11T23:16:05.624Z,55.07
2018-04-11T23:18:33.843Z,55.03
2018-04-11T23:21:01.941Z,53.07
2018-04-11T23:23:30.031Z,54.77
2018-04-11T23:25:58.144Z,53.00
2018-04-11T23:28:27.104Z,51.50
2018-04-11T23:30:55.532Z,53.23
2018-04-11T23:33:23.657Z,52.87
2018-04-11T23:35:51.976Z,52.57
2018-04-11T23:38:21.136Z,51.43
2018-04-11T23:40:49.312Z,55.37
2018-04-11T23:43:17.411Z,53.77
2018-04-11T23:45:45.521Z,55.73
2018-04-11T23:48:14.651Z,53.73
2018-04-11T23:50:42.748Z,51.70
2018-04-11T23:53:11.970Z,54.10
2018-04-11T23:55:40.046Z,54.83
2018-04-11T23:58:08.914Z,50.00
